sensor_id;sensor_type;location;lat;lon;timestamp;P1;durP1;ratioP1;P2;durP2;ratioP2
4198;SDS011;2113;50.946;14.610;2023-09-30T00:01:14;9.75;;;7.10;;
4198;SDS011;2113;50.946;14.610;2023-09-30T00:03:42;8.95;;;6.05;;
4198;SDS011;2113;50.946;14.610;2023-09-30T00:06:10;9.95;;;6.05;;
4198;SDS011;2113;50.946;14.610;2023-09-30T00:08:38;13.40;;;8.27;;
4198;SDS011;2113;50.946;14.610;2023-09-30T00:11:08;16.65;;;6.60;;
4198;SDS011;2113;50.946;14.610;2023-09-30T00:13:37;13.80;;;6.57;;
4198;SDS011;2113;50.946;14.610;2023-09-30T00:16:07;8.77;;;6.15;;
4198;SDS011;2113;50.946;14.610;2023-09-30T00:18:36;8.73;;;6.53;;
4198;SDS011;2113;50.946;14.610;2023-09-30T00:21:04;10.75;;;7.00;;
4198;SDS011;2113;50.946;14.610;2023-09-30T00:23:33;8.88;;;5.90;;
4198;SDS011;2113;50.946;14.610;2023-09-30T00:26:01;11.20;;;6.82;;
4198;SDS011;2113;50.946;14.610;2023-09-30T00:28:29;9.25;;;5.72;;
4198;SDS011;2113;50.946;14.610;2023-09-30T00:30:57;9.48;;;6.00;;
4198;SDS011;2113;50.946;14.610;2023-09-30T00:33:27;8.80;;;5.78;;
4198;SDS011;2113;50.946;14.610;2023-09-30T00:35:55;16.23;;;6.22;;
4198;SDS011;2113;50.946;14.610;2023-09-30T00:38:23;9.35;;;5.90;;
4198;SDS011;2113;50.946;14.610;2023-09-30T00:40:52;10.48;;;6.50;;
4198;SDS011;2113;50.946;14.610;2023-09-30T00:43:20;7.97;;;5.85;;
4198;SDS011;2113;50.946;14.610;2023-09-30T00:45:48;13.70;;;7.05;;
4198;SDS011;2113;50.946;14.610;2023-09-30T00:48:25;8.50;;;6.25;;
4198;SDS011;2113;50.946;14.610;2023-09-30T00:50:54;9.85;;;6.38;;
4198;SDS011;2113;50.946;14.610;2023-09-30T00:53:23;12.60;;;6.85;;
4198;SDS011;2113;50.946;14.610;2023-09-30T00:55:53;9.80;;;5.72;;
4198;SDS011;2113;50.946;14.610;2023-09-30T00:58:23;15.25;;;7.38;;
4198;SDS011;2113;50.946;14.610;2023-09-30T01:00:55;9.98;;;6.60;;
4198;SDS011;2113;50.946;14.610;2023-09-30T01:03:24;13.75;;;6.40;;
4198;SDS011;2113;50.946;14.610;2023-09-30T01:05:54;10.65;;;6.47;;
4198;SDS011;2113;50.946;14.610;2023-09-30T01:08:24;10.70;;;6.85;;
4198;SDS011;2113;50.946;14.610;2023-09-30T01:10:52;12.43;;;5.97;;
4198;SDS011;2113;50.946;14.610;2023-09-30T01:13:21;11.82;;;6.25;;
4198;SDS011;2113;50.946;14.610;2023-09-30T01:15:49;12.02;;;6.10;;
4198;SDS011;2113;50.946;14.610;2023-09-30T01:18:18;14.68;;;6.88;;
4198;SDS011;2113;50.946;14.610;2023-09-30T01:20:46;13.48;;;6.25;;
4198;SDS011;2113;50.946;14.610;2023-09-30T01:23:16;11.90;;;6.00;;
4198;SDS011;2113;50.946;14.610;2023-09-30T01:25:45;15.43;;;5.50;;
4198;SDS011;2113;50.946;14.610;2023-09-30T01:28:13;11.43;;;5.50;;
4198;SDS011;2113;50.946;14.610;2023-09-30T01:30:43;8.60;;;4.68;;
4198;SDS011;2113;50.946;14.610;2023-09-30T01:33:12;14.88;;;5.15;;
4198;SDS011;2113;50.946;14.610;2023-09-30T01:35:40;7.97;;;4.47;;
4198;SDS011;2113;50.946;14.610;2023-09-30T01:38:09;6.78;;;4.63;;
4198;SDS011;2113;50.946;14.610;2023-09-30T01:40:38;8.98;;;4.90;;
4198;SDS011;2113;50.946;14.610;2023-09-30T01:43:06;10.52;;;4.57;;
4198;SDS011;2113;50.946;14.610;2023-09-30T01:45:34;9.85;;;5.15;;
4198;SDS011;2113;50.946;14.610;2023-09-30T01:48:03;11.68;;;5.35;;
4198;SDS011;2113;50.946;14.610;2023-09-30T01:50:31;8.85;;;4.45;;
4198;SDS011;2113;50.946;14.610;2023-09-30T01:52:59;9.82;;;5.82;;
4198;SDS011;2113;50.946;14.610;2023-09-30T01:55:28;8.85;;;4.93;;
4198;SDS011;2113;50.946;14.610;2023-09-30T01:57:57;8.57;;;4.60;;
4198;SDS011;2113;50.946;14.610;2023-09-30T02:00:26;9.45;;;4.88;;
4198;SDS011;2113;50.946;14.610;2023-09-30T02:02:55;15.07;;;6.25;;
4198;SDS011;2113;50.946;14.610;2023-09-30T02:05:24;8.95;;;4.43;;
4198;SDS011;2113;50.946;14.610;2023-09-30T02:07:52;9.15;;;4.70;;
4198;SDS011;2113;50.946;14.610;2023-09-30T02:10:21;8.13;;;4.55;;
4198;SDS011;2113;50.946;14.610;2023-09-30T02:12:50;12.93;;;5.60;;
4198;SDS011;2113;50.946;14.610;2023-09-30T02:15:20;11.55;;;5.15;;
4198;SDS011;2113;50.946;14.610;2023-09-30T02:17:48;11.80;;;5.88;;
4198;SDS011;2113;50.946;14.610;2023-09-30T02:20:16;14.18;;;5.70;;
4198;SDS011;2113;50.946;14.610;2023-09-30T02:22:46;6.72;;;4.65;;
4198;SDS011;2113;50.946;14.610;2023-09-30T02:25:15;7.32;;;4.93;;
4198;SDS011;2113;50.946;14.610;2023-09-30T02:27:44;12.05;;;5.78;;
4198;SDS011;2113;50.946;14.610;2023-09-30T02:30:12;10.35;;;4.85;;
4198;SDS011;2113;50.946;14.610;2023-09-30T02:32:42;9.80;;;5.40;;
4198;SDS011;2113;50.946;14.610;2023-09-30T02:35:13;9.10;;;4.90;;
4198;SDS011;2113;50.946;14.610;2023-09-30T02:37:42;10.40;;;4.43;;
4198;SDS011;2113;50.946;14.610;2023-09-30T02:40:11;5.78;;;3.03;;
4198;SDS011;2113;50.946;14.610;2023-09-30T02:42:41;5.45;;;1.80;;
4198;SDS011;2113;50.946;14.610;2023-09-30T02:45:10;4.80;;;1.90;;
4198;SDS011;2113;50.946;14.610;2023-09-30T02:47:39;3.00;;;1.40;;
4198;SDS011;2113;50.946;14.610;2023-09-30T02:50:09;3.70;;;1.70;;
4198;SDS011;2113;50.946;14.610;2023-09-30T02:52:39;3.88;;;1.55;;
4198;SDS011;2113;50.946;14.610;2023-09-30T02:55:08;4.50;;;2.08;;
4198;SDS011;2113;50.946;14.610;2023-09-30T02:57:37;6.13;;;2.30;;
4198;SDS011;2113;50.946;14.610;2023-09-30T03:00:08;7.60;;;2.10;;
4198;SDS011;2113;50.946;14.610;2023-09-30T03:02:48;6.72;;;2.45;;
4198;SDS011;2113;50.946;14.610;2023-09-30T03:05:18;3.78;;;1.85;;
4198;SDS011;2113;50.946;14.610;2023-09-30T03:07:47;8.02;;;2.95;;
4198;SDS011;2113;50.946;14.610;2023-09-30T03:10:17;7.10;;;1.90;;
4198;SDS011;2113;50.946;14.610;2023-09-30T03:12:47;8.35;;;2.40;;
4198;SDS011;2113;50.946;14.610;2023-09-30T03:15:16;6.28;;;2.78;;
4198;SDS011;2113;50.946;14.610;2023-09-30T03:17:45;7.82;;;2.55;;
4198;SDS011;2113;50.946;14.610;2023-09-30T03:20:19;4.30;;;1.80;;
4198;SDS011;2113;50.946;14.610;2023-09-30T03:22:48;6.45;;;2.00;;
4198;SDS011;2113;50.946;14.610;2023-09-30T03:25:16;7.85;;;2.60;;
4198;SDS011;2113;50.946;14.610;2023-09-30T03:27:47;8.88;;;2.17;;
4198;SDS011;2113;50.946;14.610;2023-09-30T03:30:16;6.97;;;2.55;;
4198;SDS011;2113;50.946;14.610;2023-09-30T03:32:47;7.80;;;2.20;;
4198;SDS011;2113;50.946;14.610;2023-09-30T03:35:15;6.32;;;2.50;;
4198;SDS011;2113;50.946;14.610;2023-09-30T03:37:46;6.32;;;2.67;;
4198;SDS011;2113;50.946;14.610;2023-09-30T03:40:15;9.77;;;2.40;;
4198;SDS011;2113;50.946;14.610;2023-09-30T03:42:47;5.45;;;2.58;;
4198;SDS011;2113;50.946;14.610;2023-09-30T03:45:17;6.65;;;2.50;;
4198;SDS011;2113;50.946;14.610;2023-09-30T03:47:46;13.05;;;2.90;;
4198;SDS011;2113;50.946;14.610;2023-09-30T03:50:16;4.20;;;2.40;;
4198;SDS011;2113;50.946;14.610;2023-09-30T03:52:44;11.55;;;2.70;;
4198;SDS011;2113;50.946;14.610;2023-09-30T03:55:15;4.85;;;2.45;;
4198;SDS011;2113;50.946;14.610;2023-09-30T03:57:48;7.28;;;2.53;;
4198;SDS011;2113;50.946;14.610;2023-09-30T04:00:18;7.95;;;2.20;;
4198;SDS011;2113;50.946;14.610;2023-09-30T04:02:47;7.25;;;2.95;;
4198;SDS011;2113;50.946;14.610;2023-09-30T04:05:18;6.63;;;2.38;;
4198;SDS011;2113;50.946;14.610;2023-09-30T04:07:46;7.28;;;2.50;;
4198;SDS011;2113;50.946;14.610;2023-09-30T04:10:16;6.53;;;2.33;;
4198;SDS011;2113;50.946;14.610;2023-09-30T04:12:47;5.70;;;2.17;;
4198;SDS011;2113;50.946;14.610;2023-09-30T04:15:16;4.63;;;2.45;;
4198;SDS011;2113;50.946;14.610;2023-09-30T04:17:45;8.30;;;2.50;;
4198;SDS011;2113;50.946;14.610;2023-09-30T04:20:13;5.65;;;2.25;;
4198;SDS011;2113;50.946;14.610;2023-09-30T04:22:50;4.43;;;1.95;;
4198;SDS011;2113;50.946;14.610;2023-09-30T04:25:23;5.45;;;2.00;;
4198;SDS011;2113;50.946;14.610;2023-09-30T04:27:52;5.93;;;2.17;;
4198;SDS011;2113;50.946;14.610;2023-09-30T04:30:21;8.52;;;2.17;;
4198;SDS011;2113;50.946;14.610;2023-09-30T04:32:50;5.93;;;1.90;;
4198;SDS011;2113;50.946;14.610;2023-09-30T04:35:18;5.57;;;1.80;;
4198;SDS011;2113;50.946;14.610;2023-09-30T04:37:48;8.75;;;2.42;;
4198;SDS011;2113;50.946;14.610;2023-09-30T04:40:18;7.93;;;2.10;;
4198;SDS011;2113;50.946;14.610;2023-09-30T04:42:49;10.07;;;3.90;;
4198;SDS011;2113;50.946;14.610;2023-09-30T04:45:17;7.38;;;3.38;;
4198;SDS011;2113;50.946;14.610;2023-09-30T04:47:47;6.65;;;3.25;;
4198;SDS011;2113;50.946;14.610;2023-09-30T04:50:17;5.88;;;2.35;;
4198;SDS011;2113;50.946;14.610;2023-09-30T04:52:48;7.80;;;2.97;;
4198;SDS011;2113;50.946;14.610;2023-09-30T04:55:18;4.50;;;2.75;;
4198;SDS011;2113;50.946;14.610;2023-09-30T04:57:46;4.07;;;2.28;;
4198;SDS011;2113;50.946;14.610;2023-09-30T05:00:18;5.55;;;2.15;;
4198;SDS011;2113;50.946;14.610;2023-09-30T05:02:52;5.60;;;2.10;;
4198;SDS011;2113;50.946;14.610;2023-09-30T05:05:21;9.77;;;2.95;;
4198;SDS011;2113;50.946;14.610;2023-09-30T05:07:49;10.77;;;2.28;;
4198;SDS011;2113;50.946;14.610;2023-09-30T05:10:17;7.40;;;2.42;;
4198;SDS011;2113;50.946;14.610;2023-09-30T05:12:46;5.53;;;2.17;;
4198;SDS011;2113;50.946;14.610;2023-09-30T05:15:15;4.50;;;1.55;;
4198;SDS011;2113;50.946;14.610;2023-09-30T05:17:46;6.35;;;2.08;;
4198;SDS011;2113;50.946;14.610;2023-09-30T05:20:16;14.77;;;2.40;;
4198;SDS011;2113;50.946;14.610;2023-09-30T05:22:45;10.00;;;2.40;;
4198;SDS011;2113;50.946;14.610;2023-09-30T05:25:16;11.00;;;2.88;;
4198;SDS011;2113;50.946;14.610;2023-09-30T05:27:45;4.45;;;2.40;;
4198;SDS011;2113;50.946;14.610;2023-09-30T05:30:17;11.68;;;2.72;;
4198;SDS011;2113;50.946;14.610;2023-09-30T05:32:47;6.53;;;3.95;;
4198;SDS011;2113;50.946;14.610;2023-09-30T05:35:18;9.88;;;3.03;;
4198;SDS011;2113;50.946;14.610;2023-09-30T05:37:49;12.27;;;3.45;;
4198;SDS011;2113;50.946;14.610;2023-09-30T05:40:20;10.05;;;2.35;;
4198;SDS011;2113;50.946;14.610;2023-09-30T05:42:52;7.22;;;2.22;;
4198;SDS011;2113;50.946;14.610;2023-09-30T05:45:23;7.55;;;2.30;;
4198;SDS011;2113;50.946;14.610;2023-09-30T05:47:53;8.48;;;2.70;;
4198;SDS011;2113;50.946;14.610;2023-09-30T05:50:23;20.50;;;4.40;;
4198;SDS011;2113;50.946;14.610;2023-09-30T05:52:54;16.42;;;3.35;;
4198;SDS011;2113;50.946;14.610;2023-09-30T05:55:23;5.65;;;1.90;;
4198;SDS011;2113;50.946;14.610;2023-09-30T05:57:53;12.93;;;4.28;;
4198;SDS011;2113;50.946;14.610;2023-09-30T06:00:23;9.38;;;3.95;;
4198;SDS011;2113;50.946;14.610;2023-09-30T06:02:57;5.63;;;2.25;;
4198;SDS011;2113;50.946;14.610;2023-09-30T06:05:27;10.52;;;2.75;;
4198;SDS011;2113;50.946;14.610;2023-09-30T06:07:58;14.93;;;4.95;;
4198;SDS011;2113;50.946;14.610;2023-09-30T06:10:30;6.22;;;2.25;;
4198;SDS011;2113;50.946;14.610;2023-09-30T06:12:58;11.55;;;2.30;;
4198;SDS011;2113;50.946;14.610;2023-09-30T06:15:28;8.30;;;3.03;;
4198;SDS011;2113;50.946;14.610;2023-09-30T06:17:56;11.27;;;2.85;;
4198;SDS011;2113;50.946;14.610;2023-09-30T06:20:27;8.93;;;2.47;;
4198;SDS011;2113;50.946;14.610;2023-09-30T06:22:57;7.40;;;2.45;;
4198;SDS011;2113;50.946;14.610;2023-09-30T06:25:27;6.40;;;2.40;;
4198;SDS011;2113;50.946;14.610;2023-09-30T06:27:57;9.40;;;2.78;;
4198;SDS011;2113;50.946;14.610;2023-09-30T06:30:26;17.45;;;3.25;;
4198;SDS011;2113;50.946;14.610;2023-09-30T06:32:58;9.50;;;3.28;;
4198;SDS011;2113;50.946;14.610;2023-09-30T06:35:28;10.90;;;2.88;;
4198;SDS011;2113;50.946;14.610;2023-09-30T06:38:01;8.13;;;2.67;;
4198;SDS011;2113;50.946;14.610;2023-09-30T06:40:30;10.25;;;2.40;;
4198;SDS011;2113;50.946;14.610;2023-09-30T06:42:58;12.70;;;3.65;;
4198;SDS011;2113;50.946;14.610;2023-09-30T06:45:53;9.70;;;3.13;;
4198;SDS011;2113;50.946;14.610;2023-09-30T06:48:21;8.13;;;2.85;;
4198;SDS011;2113;50.946;14.610;2023-09-30T06:50:49;12.40;;;2.85;;
4198;SDS011;2113;50.946;14.610;2023-09-30T06:53:19;10.65;;;2.47;;
4198;SDS011;2113;50.946;14.610;2023-09-30T06:55:48;7.70;;;4.00;;
4198;SDS011;2113;50.946;14.610;2023-09-30T06:58:18;9.77;;;3.40;;
4198;SDS011;2113;50.946;14.610;2023-09-30T07:00:48;9.88;;;2.65;;
4198;SDS011;2113;50.946;14.610;2023-09-30T07:03:18;10.73;;;3.72;;
4198;SDS011;2113;50.946;14.610;2023-09-30T07:05:52;13.32;;;3.45;;
4198;SDS011;2113;50.946;14.610;2023-09-30T07:08:21;7.95;;;3.08;;
4198;SDS011;2113;50.946;14.610;2023-09-30T07:10:49;7.38;;;2.47;;
4198;SDS011;2113;50.946;14.610;2023-09-30T07:13:19;11.60;;;3.10;;
4198;SDS011;2113;50.946;14.610;2023-09-30T07:15:47;12.75;;;3.08;;
4198;SDS011;2113;50.946;14.610;2023-09-30T07:18:16;11.55;;;2.90;;
4198;SDS011;2113;50.946;14.610;2023-09-30T07:20:46;14.88;;;2.53;;
4198;SDS011;2113;50.946;14.610;2023-09-30T07:23:15;13.23;;;4.07;;
4198;SDS011;2113;50.946;14.610;2023-09-30T07:25:46;7.00;;;2.42;;
4198;SDS011;2113;50.946;14.610;2023-09-30T07:28:14;7.57;;;3.05;;
4198;SDS011;2113;50.946;14.610;2023-09-30T07:30:43;11.32;;;2.50;;
4198;SDS011;2113;50.946;14.610;2023-09-30T07:33:12;12.13;;;3.22;;
4198;SDS011;2113;50.946;14.610;2023-09-30T07:35:41;12.18;;;3.00;;
4198;SDS011;2113;50.946;14.610;2023-09-30T07:38:10;13.43;;;2.30;;
4198;SDS011;2113;50.946;14.610;2023-09-30T07:40:38;13.35;;;3.58;;
4198;SDS011;2113;50.946;14.610;2023-09-30T07:43:07;10.13;;;2.50;;
4198;SDS011;2113;50.946;14.610;2023-09-30T07:45:35;12.05;;;2.50;;
4198;SDS011;2113;50.946;14.610;2023-09-30T07:48:04;12.48;;;2.85;;
4198;SDS011;2113;50.946;14.610;2023-09-30T07:50:36;8.75;;;3.10;;
4198;SDS011;2113;50.946;14.610;2023-09-30T07:53:04;10.13;;;2.70;;
4198;SDS011;2113;50.946;14.610;2023-09-30T07:55:34;18.63;;;3.97;;
4198;SDS011;2113;50.946;14.610;2023-09-30T07:58:02;7.10;;;2.55;;
4198;SDS011;2113;50.946;14.610;2023-09-30T08:00:31;10.68;;;3.30;;
4198;SDS011;2113;50.946;14.610;2023-09-30T08:03:01;7.07;;;2.55;;
4198;SDS011;2113;50.946;14.610;2023-09-30T08:05:29;13.70;;;2.85;;
4198;SDS011;2113;50.946;14.610;2023-09-30T08:07:58;11.00;;;4.20;;
4198;SDS011;2113;50.946;14.610;2023-09-30T08:10:28;12.18;;;4.13;;
4198;SDS011;2113;50.946;14.610;2023-09-30T08:13:00;13.55;;;3.25;;
4198;SDS011;2113;50.946;14.610;2023-09-30T08:15:29;9.50;;;3.38;;
4198;SDS011;2113;50.946;14.610;2023-09-30T08:17:58;11.82;;;2.92;;
4198;SDS011;2113;50.946;14.610;2023-09-30T08:20:26;12.32;;;3.33;;
4198;SDS011;2113;50.946;14.610;2023-09-30T08:22:54;13.82;;;2.25;;
4198;SDS011;2113;50.946;14.610;2023-09-30T08:25:23;10.40;;;2.85;;
4198;SDS011;2113;50.946;14.610;2023-09-30T08:27:52;9.55;;;2.42;;
4198;SDS011;2113;50.946;14.610;2023-09-30T08:30:22;10.50;;;3.75;;
4198;SDS011;2113;50.946;14.610;2023-09-30T08:32:51;9.40;;;2.92;;
4198;SDS011;2113;50.946;14.610;2023-09-30T08:35:19;8.35;;;2.80;;
4198;SDS011;2113;50.946;14.610;2023-09-30T08:37:47;11.65;;;2.88;;
4198;SDS011;2113;50.946;14.610;2023-09-30T08:40:19;9.82;;;2.65;;
4198;SDS011;2113;50.946;14.610;2023-09-30T08:42:48;9.50;;;4.00;;
4198;SDS011;2113;50.946;14.610;2023-09-30T08:45:20;9.80;;;2.97;;
4198;SDS011;2113;50.946;14.610;2023-09-30T08:47:51;7.13;;;2.97;;
4198;SDS011;2113;50.946;14.610;2023-09-30T08:50:20;16.55;;;3.85;;
4198;SDS011;2113;50.946;14.610;2023-09-30T08:52:49;7.30;;;3.25;;
4198;SDS011;2113;50.946;14.610;2023-09-30T08:55:19;10.85;;;3.47;;
4198;SDS011;2113;50.946;14.610;2023-09-30T08:57:47;10.93;;;3.45;;
4198;SDS011;2113;50.946;14.610;2023-09-30T09:00:18;6.75;;;2.95;;
4198;SDS011;2113;50.946;14.610;2023-09-30T09:02:49;14.20;;;3.25;;
4198;SDS011;2113;50.946;14.610;2023-09-30T09:05:18;7.97;;;3.03;;
4198;SDS011;2113;50.946;14.610;2023-09-30T09:07:46;11.25;;;5.00;;
4198;SDS011;2113;50.946;14.610;2023-09-30T09:10:14;8.90;;;3.35;;
4198;SDS011;2113;50.946;14.610;2023-09-30T09:12:42;12.18;;;2.78;;
4198;SDS011;2113;50.946;14.610;2023-09-30T09:15:23;11.38;;;3.75;;
4198;SDS011;2113;50.946;14.610;2023-09-30T09:17:54;9.27;;;3.65;;
4198;SDS011;2113;50.946;14.610;2023-09-30T09:20:23;10.38;;;2.85;;
4198;SDS011;2113;50.946;14.610;2023-09-30T09:22:53;24.40;;;3.50;;
4198;SDS011;2113;50.946;14.610;2023-09-30T09:25:24;11.02;;;2.97;;
4198;SDS011;2113;50.946;14.610;2023-09-30T09:27:53;15.15;;;3.40;;
4198;SDS011;2113;50.946;14.610;2023-09-30T09:30:22;9.25;;;2.70;;
4198;SDS011;2113;50.946;14.610;2023-09-30T09:32:52;10.57;;;3.28;;
4198;SDS011;2113;50.946;14.610;2023-09-30T09:35:26;8.75;;;3.20;;
4198;SDS011;2113;50.946;14.610;2023-09-30T09:37:56;9.60;;;2.40;;
4198;SDS011;2113;50.946;14.610;2023-09-30T09:40:28;14.43;;;3.35;;
4198;SDS011;2113;50.946;14.610;2023-09-30T09:42:59;8.65;;;2.72;;
4198;SDS011;2113;50.946;14.610;2023-09-30T09:45:32;18.63;;;3.75;;
4198;SDS011;2113;50.946;14.610;2023-09-30T09:48:03;9.93;;;4.07;;
4198;SDS011;2113;50.946;14.610;2023-09-30T09:50:33;7.82;;;2.35;;
4198;SDS011;2113;50.946;14.610;2023-09-30T09:53:27;7.68;;;2.50;;
4198;SDS011;2113;50.946;14.610;2023-09-30T09:55:58;8.65;;;3.20;;
4198;SDS011;2113;50.946;14.610;2023-09-30T09:58:27;15.57;;;2.50;;
4198;SDS011;2113;50.946;14.610;2023-09-30T10:01:00;7.32;;;2.50;;
4198;SDS011;2113;50.946;14.610;2023-09-30T10:03:31;14.45;;;3.17;;
4198;SDS011;2113;50.946;14.610;2023-09-30T10:06:00;13.70;;;4.00;;
4198;SDS011;2113;50.946;14.610;2023-09-30T10:08:31;7.88;;;2.40;;
4198;SDS011;2113;50.946;14.610;2023-09-30T10:11:01;9.30;;;2.10;;
4198;SDS011;2113;50.946;14.610;2023-09-30T10:19:20;6.35;;;2.50;;
4198;SDS011;2113;50.946;14.610;2023-09-30T10:24:51;7.40;;;2.97;;
4198;SDS011;2113;50.946;14.610;2023-09-30T10:27:41;8.63;;;2.83;;
4198;SDS011;2113;50.946;14.610;2023-09-30T10:30:11;14.85;;;2.75;;
4198;SDS011;2113;50.946;14.610;2023-09-30T10:35:47;5.45;;;2.53;;
4198;SDS011;2113;50.946;14.610;2023-09-30T10:41:09;9.85;;;2.92;;
4198;SDS011;2113;50.946;14.610;2023-09-30T10:43:39;7.95;;;3.08;;
4198;SDS011;2113;50.946;14.610;2023-09-30T10:51:59;7.40;;;1.90;;
4198;SDS011;2113;50.946;14.610;2023-09-30T10:54:30;9.48;;;3.42;;
4198;SDS011;2113;50.946;14.610;2023-09-30T10:56:59;7.38;;;1.90;;
4198;SDS011;2113;50.946;14.610;2023-09-30T10:59:31;11.40;;;3.45;;
4198;SDS011;2113;50.946;14.610;2023-09-30T11:02:02;7.93;;;2.15;;
4198;SDS011;2113;50.946;14.610;2023-09-30T11:04:44;8.93;;;2.28;;
4198;SDS011;2113;50.946;14.610;2023-09-30T11:07:19;9.60;;;2.47;;
4198;SDS011;2113;50.946;14.610;2023-09-30T11:09:50;9.00;;;2.55;;
4198;SDS011;2113;50.946;14.610;2023-09-30T11:12:19;11.27;;;2.95;;
4198;SDS011;2113;50.946;14.610;2023-09-30T11:14:48;7.88;;;2.13;;
4198;SDS011;2113;50.946;14.610;2023-09-30T11:17:27;5.68;;;2.28;;
4198;SDS011;2113;50.946;14.610;2023-09-30T11:19:55;6.03;;;2.42;;
4198;SDS011;2113;50.946;14.610;2023-09-30T11:22:25;8.15;;;2.75;;
4198;SDS011;2113;50.946;14.610;2023-09-30T11:24:54;6.45;;;1.98;;
4198;SDS011;2113;50.946;14.610;2023-09-30T11:27:23;9.15;;;2.17;;
4198;SDS011;2113;50.946;14.610;2023-09-30T11:29:53;11.85;;;2.60;;
4198;SDS011;2113;50.946;14.610;2023-09-30T11:32:25;9.07;;;2.05;;
4198;SDS011;2113;50.946;14.610;2023-09-30T11:34:59;7.35;;;2.35;;
4198;SDS011;2113;50.946;14.610;2023-09-30T11:37:32;5.45;;;1.73;;
4198;SDS011;2113;50.946;14.610;2023-09-30T11:40:11;5.78;;;1.98;;
4198;SDS011;2113;50.946;14.610;2023-09-30T11:42:41;8.05;;;1.90;;
4198;SDS011;2113;50.946;14.610;2023-09-30T11:45:20;5.78;;;2.35;;
4198;SDS011;2113;50.946;14.610;2023-09-30T11:47:50;7.18;;;2.33;;
4198;SDS011;2113;50.946;14.610;2023-09-30T11:50:18;6.32;;;2.50;;
4198;SDS011;2113;50.946;14.610;2023-09-30T11:52:48;7.85;;;1.88;;
4198;SDS011;2113;50.946;14.610;2023-09-30T11:55:17;4.20;;;1.55;;
4198;SDS011;2113;50.946;14.610;2023-09-30T11:57:48;10.27;;;2.50;;
4198;SDS011;2113;50.946;14.610;2023-09-30T12:00:17;7.50;;;1.50;;
4198;SDS011;2113;50.946;14.610;2023-09-30T12:02:45;11.75;;;2.28;;
4198;SDS011;2113;50.946;14.610;2023-09-30T12:05:13;7.45;;;1.83;;
4198;SDS011;2113;50.946;14.610;2023-09-30T12:07:43;7.55;;;1.73;;
4198;SDS011;2113;50.946;14.610;2023-09-30T12:10:13;7.35;;;2.42;;
4198;SDS011;2113;50.946;14.610;2023-09-30T12:12:41;4.68;;;1.65;;
4198;SDS011;2113;50.946;14.610;2023-09-30T12:15:11;6.80;;;2.08;;
4198;SDS011;2113;50.946;14.610;2023-09-30T12:17:40;5.60;;;2.17;;
4198;SDS011;2113;50.946;14.610;2023-09-30T12:20:09;11.30;;;2.40;;
4198;SDS011;2113;50.946;14.610;2023-09-30T12:22:37;3.58;;;2.00;;
4198;SDS011;2113;50.946;14.610;2023-09-30T12:25:06;7.43;;;1.88;;
4198;SDS011;2113;50.946;14.610;2023-09-30T12:35:01;8.88;;;2.30;;
4198;SDS011;2113;50.946;14.610;2023-09-30T12:37:35;6.88;;;2.08;;
4198;SDS011;2113;50.946;14.610;2023-09-30T12:40:05;6.38;;;1.80;;
4198;SDS011;2113;50.946;14.610;2023-09-30T12:42:34;7.97;;;2.22;;
4198;SDS011;2113;50.946;14.610;2023-09-30T12:45:03;7.32;;;1.98;;
4198;SDS011;2113;50.946;14.610;2023-09-30T12:47:32;7.20;;;1.73;;
4198;SDS011;2113;50.946;14.610;2023-09-30T12:50:02;10.07;;;2.50;;
4198;SDS011;2113;50.946;14.610;2023-09-30T12:52:30;8.52;;;2.60;;
4198;SDS011;2113;50.946;14.610;2023-09-30T12:54:59;7.93;;;1.90;;
4198;SDS011;2113;50.946;14.610;2023-09-30T12:57:28;10.18;;;2.10;;
4198;SDS011;2113;50.946;14.610;2023-09-30T12:59:56;5.00;;;1.75;;
4198;SDS011;2113;50.946;14.610;2023-09-30T13:02:25;4.45;;;2.03;;
4198;SDS011;2113;50.946;14.610;2023-09-30T13:04:53;4.15;;;1.85;;
4198;SDS011;2113;50.946;14.610;2023-09-30T13:07:23;3.80;;;1.65;;
4198;SDS011;2113;50.946;14.610;2023-09-30T13:09:51;7.03;;;2.00;;
4198;SDS011;2113;50.946;14.610;2023-09-30T13:12:20;6.75;;;1.65;;
4198;SDS011;2113;50.946;14.610;2023-09-30T13:14:48;6.32;;;1.98;;
4198;SDS011;2113;50.946;14.610;2023-09-30T13:17:16;7.60;;;2.47;;
4198;SDS011;2113;50.946;14.610;2023-09-30T13:19:44;5.47;;;1.98;;
4198;SDS011;2113;50.946;14.610;2023-09-30T13:22:13;9.57;;;2.38;;
4198;SDS011;2113;50.946;14.610;2023-09-30T13:24:46;6.35;;;2.40;;
4198;SDS011;2113;50.946;14.610;2023-09-30T13:27:15;4.35;;;1.70;;
4198;SDS011;2113;50.946;14.610;2023-09-30T13:29:44;4.93;;;2.10;;
4198;SDS011;2113;50.946;14.610;2023-09-30T13:32:12;8.50;;;1.77;;
4198;SDS011;2113;50.946;14.610;2023-09-30T13:34:41;3.30;;;1.40;;
4198;SDS011;2113;50.946;14.610;2023-09-30T13:37:10;8.00;;;2.38;;
4198;SDS011;2113;50.946;14.610;2023-09-30T13:39:38;8.57;;;2.70;;
4198;SDS011;2113;50.946;14.610;2023-09-30T13:42:08;9.98;;;2.65;;
4198;SDS011;2113;50.946;14.610;2023-09-30T13:44:36;8.88;;;3.05;;
4198;SDS011;2113;50.946;14.610;2023-09-30T13:47:04;4.00;;;1.40;;
4198;SDS011;2113;50.946;14.610;2023-09-30T13:49:34;12.60;;;2.40;;
4198;SDS011;2113;50.946;14.610;2023-09-30T13:52:03;5.55;;;1.88;;
4198;SDS011;2113;50.946;14.610;2023-09-30T13:54:32;9.35;;;2.30;;
4198;SDS011;2113;50.946;14.610;2023-09-30T13:57:00;7.40;;;2.05;;
4198;SDS011;2113;50.946;14.610;2023-09-30T13:59:33;10.32;;;2.25;;
4198;SDS011;2113;50.946;14.610;2023-09-30T14:02:02;10.52;;;3.05;;
4198;SDS011;2113;50.946;14.610;2023-09-30T14:04:30;10.30;;;2.22;;
4198;SDS011;2113;50.946;14.610;2023-09-30T14:06:59;9.45;;;3.13;;
4198;SDS011;2113;50.946;14.610;2023-09-30T14:09:28;7.07;;;2.92;;
4198;SDS011;2113;50.946;14.610;2023-09-30T14:12:02;7.50;;;2.25;;
4198;SDS011;2113;50.946;14.610;2023-09-30T14:14:33;10.15;;;3.20;;
4198;SDS011;2113;50.946;14.610;2023-09-30T14:17:02;16.33;;;7.18;;
4198;SDS011;2113;50.946;14.610;2023-09-30T14:19:34;7.07;;;2.60;;
4198;SDS011;2113;50.946;14.610;2023-09-30T14:22:02;3.50;;;1.50;;
4198;SDS011;2113;50.946;14.610;2023-09-30T14:24:32;11.18;;;2.75;;
4198;SDS011;2113;50.946;14.610;2023-09-30T14:27:01;8.95;;;2.30;;
4198;SDS011;2113;50.946;14.610;2023-09-30T14:29:29;8.35;;;1.48;;
4198;SDS011;2113;50.946;14.610;2023-09-30T14:32:00;7.00;;;2.20;;
4198;SDS011;2113;50.946;14.610;2023-09-30T14:34:29;6.97;;;2.08;;
4198;SDS011;2113;50.946;14.610;2023-09-30T14:36:57;7.45;;;2.50;;
4198;SDS011;2113;50.946;14.610;2023-09-30T14:39:25;8.80;;;1.83;;
4198;SDS011;2113;50.946;14.610;2023-09-30T14:41:54;5.70;;;1.13;;
4198;SDS011;2113;50.946;14.610;2023-09-30T14:44:22;8.07;;;1.70;;
4198;SDS011;2113;50.946;14.610;2023-09-30T14:46:52;10.57;;;2.45;;
4198;SDS011;2113;50.946;14.610;2023-09-30T14:49:23;5.70;;;2.17;;
4198;SDS011;2113;50.946;14.610;2023-09-30T14:51:51;5.75;;;1.80;;
4198;SDS011;2113;50.946;14.610;2023-09-30T14:54:19;8.35;;;1.83;;
4198;SDS011;2113;50.946;14.610;2023-09-30T14:56:48;6.05;;;1.65;;
4198;SDS011;2113;50.946;14.610;2023-09-30T14:59:16;4.47;;;1.67;;
4198;SDS011;2113;50.946;14.610;2023-09-30T15:01:45;5.55;;;1.83;;
4198;SDS011;2113;50.946;14.610;2023-09-30T15:04:14;6.68;;;1.70;;
4198;SDS011;2113;50.946;14.610;2023-09-30T15:06:44;9.23;;;2.10;;
4198;SDS011;2113;50.946;14.610;2023-09-30T15:09:13;6.40;;;2.28;;
4198;SDS011;2113;50.946;14.610;2023-09-30T15:11:41;11.70;;;3.05;;
4198;SDS011;2113;50.946;14.610;2023-09-30T15:14:09;6.95;;;2.20;;
4198;SDS011;2113;50.946;14.610;2023-09-30T15:16:37;7.30;;;1.77;;
4198;SDS011;2113;50.946;14.610;2023-09-30T15:19:06;6.22;;;1.92;;
4198;SDS011;2113;50.946;14.610;2023-09-30T15:21:34;8.98;;;2.30;;
4198;SDS011;2113;50.946;14.610;2023-09-30T15:24:05;4.43;;;1.60;;
4198;SDS011;2113;50.946;14.610;2023-09-30T15:26:34;5.18;;;1.77;;
4198;SDS011;2113;50.946;14.610;2023-09-30T15:29:03;4.60;;;2.40;;
4198;SDS011;2113;50.946;14.610;2023-09-30T15:31:31;8.85;;;3.55;;
4198;SDS011;2113;50.946;14.610;2023-09-30T15:34:00;4.50;;;1.77;;
4198;SDS011;2113;50.946;14.610;2023-09-30T15:36:29;8.63;;;1.77;;
4198;SDS011;2113;50.946;14.610;2023-09-30T15:38:58;6.90;;;2.50;;
4198;SDS011;2113;50.946;14.610;2023-09-30T15:41:27;7.53;;;2.17;;